sensor_id;sensor_type;location;lat;lon;timestamp;P1;durP1;ratioP1;P2;durP2;ratioP2
65202;SDS011;51788;45.124;38.966;2024-03-07T00:01:03;36.47;;;22.58;;
65202;SDS011;51788;45.124;38.966;2024-03-07T00:03:29;35.50;;;20.60;;
65202;SDS011;51788;45.124;38.966;2024-03-07T00:05:55;44.72;;;21.90;;
65202;SDS011;51788;45.124;38.966;2024-03-07T00:08:22;31.65;;;19.05;;
65202;SDS011;51788;45.124;38.966;2024-03-07T00:10:48;26.33;;;18.23;;
65202;SDS011;51788;45.124;38.966;2024-03-07T00:13:14;35.42;;;18.17;;
65202;SDS011;51788;45.124;38.966;2024-03-07T00:15:40;29.45;;;17.20;;
65202;SDS011;51788;45.124;38.966;2024-03-07T00:18:06;40.83;;;20.70;;
65202;SDS011;51788;45.124;38.966;2024-03-07T00:20:32;27.05;;;18.30;;
65202;SDS011;51788;45.124;38.966;2024-03-07T00:22:58;37.38;;;20.85;;
65202;SDS011;51788;45.124;38.966;2024-03-07T00:25:24;32.65;;;18.42;;
65202;SDS011;51788;45.124;38.966;2024-03-07T00:27:51;17.67;;;12.35;;
65202;SDS011;51788;45.124;38.966;2024-03-07T00:30:19;24.77;;;20.10;;
65202;SDS011;51788;45.124;38.966;2024-03-07T00:32:46;28.67;;;17.92;;
65202;SDS011;51788;45.124;38.966;2024-03-07T00:35:12;29.63;;;15.90;;
65202;SDS011;51788;45.124;38.966;2024-03-07T00:37:38;18.42;;;12.57;;
65202;SDS011;51788;45.124;38.966;2024-03-07T00:40:04;26.45;;;15.82;;
65202;SDS011;51788;45.124;38.966;2024-03-07T00:42:31;23.90;;;13.20;;
65202;SDS011;51788;45.124;38.966;2024-03-07T00:44:57;19.10;;;12.60;;
65202;SDS011;51788;45.124;38.966;2024-03-07T00:47:23;19.40;;;13.05;;
65202;SDS011;51788;45.124;38.966;2024-03-07T00:49:49;22.58;;;12.27;;
65202;SDS011;51788;45.124;38.966;2024-03-07T00:52:15;14.15;;;11.10;;
65202;SDS011;51788;45.124;38.966;2024-03-07T00:54:42;20.70;;;11.52;;
65202;SDS011;51788;45.124;38.966;2024-03-07T00:57:08;16.38;;;10.57;;
65202;SDS011;51788;45.124;38.966;2024-03-07T00:59:34;15.15;;;9.63;;
65202;SDS011;51788;45.124;38.966;2024-03-07T01:02:01;12.38;;;9.10;;
65202;SDS011;51788;45.124;38.966;2024-03-07T01:04:27;22.77;;;8.73;;
65202;SDS011;51788;45.124;38.966;2024-03-07T01:06:58;10.32;;;9.05;;
65202;SDS011;51788;45.124;38.966;2024-03-07T01:09:28;12.50;;;9.40;;
65202;SDS011;51788;45.124;38.966;2024-03-07T01:11:54;16.90;;;10.75;;
65202;SDS011;51788;45.124;38.966;2024-03-07T01:14:20;22.48;;;9.77;;
65202;SDS011;51788;45.124;38.966;2024-03-07T01:16:47;12.52;;;7.82;;
65202;SDS011;51788;45.124;38.966;2024-03-07T01:19:13;16.52;;;8.75;;
65202;SDS011;51788;45.124;38.966;2024-03-07T01:21:40;13.02;;;7.90;;
65202;SDS011;51788;45.124;38.966;2024-03-07T01:24:06;13.18;;;7.13;;
65202;SDS011;51788;45.124;38.966;2024-03-07T01:26:32;11.65;;;8.38;;
65202;SDS011;51788;45.124;38.966;2024-03-07T01:29:01;14.20;;;7.95;;
65202;SDS011;51788;45.124;38.966;2024-03-07T01:31:27;8.98;;;6.80;;
65202;SDS011;51788;45.124;38.966;2024-03-07T01:33:53;12.48;;;7.40;;
65202;SDS011;51788;45.124;38.966;2024-03-07T01:36:19;10.35;;;7.93;;
65202;SDS011;51788;45.124;38.966;2024-03-07T01:38:46;12.65;;;8.10;;
65202;SDS011;51788;45.124;38.966;2024-03-07T01:41:12;16.67;;;8.02;;
65202;SDS011;51788;45.124;38.966;2024-03-07T01:43:39;12.98;;;7.63;;
65202;SDS011;51788;45.124;38.966;2024-03-07T01:46:06;16.23;;;8.35;;
65202;SDS011;51788;45.124;38.966;2024-03-07T01:48:33;9.75;;;7.20;;
65202;SDS011;51788;45.124;38.966;2024-03-07T01:50:59;10.85;;;7.25;;
65202;SDS011;51788;45.124;38.966;2024-03-07T01:53:29;11.15;;;7.22;;
65202;SDS011;51788;45.124;38.966;2024-03-07T01:55:59;11.05;;;8.35;;
65202;SDS011;51788;45.124;38.966;2024-03-07T01:58:27;9.90;;;6.97;;
65202;SDS011;51788;45.124;38.966;2024-03-07T02:00:55;7.38;;;6.60;;
65202;SDS011;51788;45.124;38.966;2024-03-07T02:03:21;10.95;;;6.68;;
65202;SDS011;51788;45.124;38.966;2024-03-07T02:05:47;7.57;;;6.57;;
65202;SDS011;51788;45.124;38.966;2024-03-07T02:08:13;12.68;;;6.35;;
65202;SDS011;51788;45.124;38.966;2024-03-07T02:10:40;9.50;;;7.40;;
65202;SDS011;51788;45.124;38.966;2024-03-07T02:13:06;14.27;;;7.60;;
65202;SDS011;51788;45.124;38.966;2024-03-07T02:15:32;12.55;;;7.35;;
65202;SDS011;51788;45.124;38.966;2024-03-07T02:17:58;9.02;;;5.80;;
65202;SDS011;51788;45.124;38.966;2024-03-07T02:20:24;13.73;;;6.50;;
65202;SDS011;51788;45.124;38.966;2024-03-07T02:22:51;6.22;;;5.47;;
65202;SDS011;51788;45.124;38.966;2024-03-07T02:25:17;14.48;;;7.65;;
65202;SDS011;51788;45.124;38.966;2024-03-07T02:27:43;6.60;;;5.93;;
65202;SDS011;51788;45.124;38.966;2024-03-07T02:30:11;11.57;;;8.18;;
65202;SDS011;51788;45.124;38.966;2024-03-07T02:32:38;6.43;;;5.78;;
65202;SDS011;51788;45.124;38.966;2024-03-07T02:35:04;10.40;;;7.95;;
65202;SDS011;51788;45.124;38.966;2024-03-07T02:37:31;10.25;;;7.13;;
65202;SDS011;51788;45.124;38.966;2024-03-07T02:39:57;10.27;;;6.15;;
65202;SDS011;51788;45.124;38.966;2024-03-07T02:42:23;7.22;;;5.95;;
65202;SDS011;51788;45.124;38.966;2024-03-07T02:44:49;11.10;;;6.40;;
65202;SDS011;51788;45.124;38.966;2024-03-07T02:47:15;19.27;;;8.05;;
65202;SDS011;51788;45.124;38.966;2024-03-07T02:49:41;10.27;;;6.72;;
65202;SDS011;51788;45.124;38.966;2024-03-07T02:52:07;5.93;;;4.95;;
65202;SDS011;51788;45.124;38.966;2024-03-07T02:54:33;6.47;;;5.82;;
65202;SDS011;51788;45.124;38.966;2024-03-07T02:57:00;12.13;;;8.70;;
65202;SDS011;51788;45.124;38.966;2024-03-07T02:59:26;7.35;;;6.05;;
65202;SDS011;51788;45.124;38.966;2024-03-07T03:01:52;13.05;;;6.13;;
65202;SDS011;51788;45.124;38.966;2024-03-07T03:04:18;8.55;;;6.00;;
65202;SDS011;51788;45.124;38.966;2024-03-07T03:06:45;12.35;;;6.45;;
65202;SDS011;51788;45.124;38.966;2024-03-07T03:09:11;8.05;;;6.68;;
65202;SDS011;51788;45.124;38.966;2024-03-07T03:11:43;9.30;;;6.63;;
65202;SDS011;51788;45.124;38.966;2024-03-07T03:14:12;9.50;;;6.20;;
65202;SDS011;51788;45.124;38.966;2024-03-07T03:16:41;8.88;;;5.93;;
65202;SDS011;51788;45.124;38.966;2024-03-07T03:19:08;9.35;;;6.75;;
65202;SDS011;51788;45.124;38.966;2024-03-07T03:21:35;8.50;;;6.53;;
65202;SDS011;51788;45.124;38.966;2024-03-07T03:24:02;7.07;;;6.35;;
65202;SDS011;51788;45.124;38.966;2024-03-07T03:26:28;11.90;;;6.90;;
65202;SDS011;51788;45.124;38.966;2024-03-07T03:28:54;8.30;;;5.75;;
65202;SDS011;51788;45.124;38.966;2024-03-07T03:31:20;6.65;;;5.97;;
65202;SDS011;51788;45.124;38.966;2024-03-07T03:33:46;7.30;;;5.90;;
65202;SDS011;51788;45.124;38.966;2024-03-07T03:36:13;10.65;;;7.40;;
65202;SDS011;51788;45.124;38.966;2024-03-07T03:38:39;14.00;;;7.80;;
65202;SDS011;51788;45.124;38.966;2024-03-07T03:41:06;10.32;;;8.23;;
65202;SDS011;51788;45.124;38.966;2024-03-07T03:43:32;13.82;;;7.93;;
65202;SDS011;51788;45.124;38.966;2024-03-07T03:45:58;8.93;;;6.93;;
65202;SDS011;51788;45.124;38.966;2024-03-07T03:48:24;10.27;;;7.80;;
65202;SDS011;51788;45.124;38.966;2024-03-07T03:50:50;27.33;;;7.97;;
65202;SDS011;51788;45.124;38.966;2024-03-07T03:53:16;27.73;;;17.33;;
65202;SDS011;51788;45.124;38.966;2024-03-07T03:55:43;11.95;;;8.02;;
65202;SDS011;51788;45.124;38.966;2024-03-07T03:58:09;17.08;;;9.07;;
65202;SDS011;51788;45.124;38.966;2024-03-07T04:00:35;13.35;;;9.25;;
65202;SDS011;51788;45.124;38.966;2024-03-07T04:03:01;8.60;;;6.75;;
65202;SDS011;51788;45.124;38.966;2024-03-07T04:05:27;16.88;;;10.98;;
65202;SDS011;51788;45.124;38.966;2024-03-07T04:07:53;14.07;;;7.97;;
65202;SDS011;51788;45.124;38.966;2024-03-07T04:10:21;21.30;;;9.25;;
65202;SDS011;51788;45.124;38.966;2024-03-07T04:12:47;11.27;;;7.60;;
65202;SDS011;51788;45.124;38.966;2024-03-07T04:15:14;4.97;;;4.47;;
65202;SDS011;51788;45.124;38.966;2024-03-07T04:17:44;9.52;;;6.72;;
65202;SDS011;51788;45.124;38.966;2024-03-07T04:20:11;16.05;;;9.55;;
65202;SDS011;51788;45.124;38.966;2024-03-07T04:22:38;10.70;;;8.23;;
65202;SDS011;51788;45.124;38.966;2024-03-07T04:25:05;13.50;;;9.55;;
65202;SDS011;51788;45.124;38.966;2024-03-07T04:27:32;7.93;;;6.55;;
65202;SDS011;51788;45.124;38.966;2024-03-07T04:30:05;16.20;;;8.82;;
65202;SDS011;51788;45.124;38.966;2024-03-07T04:32:41;8.00;;;7.13;;
65202;SDS011;51788;45.124;38.966;2024-03-07T04:35:07;19.23;;;10.63;;
65202;SDS011;51788;45.124;38.966;2024-03-07T04:37:38;13.45;;;8.95;;
65202;SDS011;51788;45.124;38.966;2024-03-07T04:40:06;5.82;;;5.32;;
65202;SDS011;51788;45.124;38.966;2024-03-07T04:42:41;16.60;;;10.75;;
65202;SDS011;51788;45.124;38.966;2024-03-07T04:45:11;12.10;;;8.60;;
65202;SDS011;51788;45.124;38.966;2024-03-07T04:47:41;10.90;;;6.85;;
65202;SDS011;51788;45.124;38.966;2024-03-07T04:50:08;9.48;;;6.72;;
65202;SDS011;51788;45.124;38.966;2024-03-07T04:52:38;10.30;;;7.45;;
65202;SDS011;51788;45.124;38.966;2024-03-07T04:55:05;11.57;;;8.23;;
65202;SDS011;51788;45.124;38.966;2024-03-07T04:57:38;19.02;;;7.60;;
65202;SDS011;51788;45.124;38.966;2024-03-07T05:00:06;8.80;;;7.18;;
65202;SDS011;51788;45.124;38.966;2024-03-07T05:02:38;10.70;;;7.30;;
65202;SDS011;51788;45.124;38.966;2024-03-07T05:05:05;11.23;;;8.60;;
65202;SDS011;51788;45.124;38.966;2024-03-07T05:07:31;16.40;;;11.90;;
65202;SDS011;51788;45.124;38.966;2024-03-07T05:09:57;6.35;;;5.75;;
65202;SDS011;51788;45.124;38.966;2024-03-07T05:12:23;13.63;;;8.02;;
65202;SDS011;51788;45.124;38.966;2024-03-07T05:14:49;8.95;;;6.95;;
65202;SDS011;51788;45.124;38.966;2024-03-07T05:17:15;4.93;;;4.53;;
65202;SDS011;51788;45.124;38.966;2024-03-07T05:19:44;12.15;;;9.20;;
65202;SDS011;51788;45.124;38.966;2024-03-07T05:22:11;12.52;;;7.10;;
65202;SDS011;51788;45.124;38.966;2024-03-07T05:24:41;8.10;;;6.75;;
65202;SDS011;51788;45.124;38.966;2024-03-07T05:27:08;7.72;;;6.75;;
65202;SDS011;51788;45.124;38.966;2024-03-07T05:29:37;12.70;;;7.70;;
65202;SDS011;51788;45.124;38.966;2024-03-07T05:34:49;10.45;;;6.20;;
65202;SDS011;51788;45.124;38.966;2024-03-07T05:37:15;8.60;;;7.28;;
65202;SDS011;51788;45.124;38.966;2024-03-07T05:39:41;10.50;;;8.48;;
65202;SDS011;51788;45.124;38.966;2024-03-07T05:42:07;13.50;;;8.82;;
65202;SDS011;51788;45.124;38.966;2024-03-07T05:44:33;20.38;;;8.57;;
65202;SDS011;51788;45.124;38.966;2024-03-07T05:46:59;9.95;;;7.00;;
65202;SDS011;51788;45.124;38.966;2024-03-07T05:49:25;10.90;;;8.80;;
65202;SDS011;51788;45.124;38.966;2024-03-07T05:51:51;10.57;;;7.93;;
65202;SDS011;51788;45.124;38.966;2024-03-07T05:54:17;13.88;;;8.25;;
65202;SDS011;51788;45.124;38.966;2024-03-07T05:56:43;10.18;;;8.20;;
65202;SDS011;51788;45.124;38.966;2024-03-07T05:59:09;13.80;;;8.95;;
65202;SDS011;51788;45.124;38.966;2024-03-07T06:01:38;8.93;;;7.28;;
65202;SDS011;51788;45.124;38.966;2024-03-07T06:04:05;18.02;;;10.13;;
65202;SDS011;51788;45.124;38.966;2024-03-07T06:06:32;8.05;;;5.93;;
65202;SDS011;51788;45.124;38.966;2024-03-07T06:09:05;9.88;;;7.75;;
65202;SDS011;51788;45.124;38.966;2024-03-07T06:11:33;9.65;;;8.70;;
65202;SDS011;51788;45.124;38.966;2024-03-07T06:14:04;7.68;;;6.90;;
65202;SDS011;51788;45.124;38.966;2024-03-07T06:16:31;12.13;;;9.38;;
65202;SDS011;51788;45.124;38.966;2024-03-07T06:19:04;14.02;;;8.15;;
65202;SDS011;51788;45.124;38.966;2024-03-07T06:21:35;14.20;;;9.38;;
65202;SDS011;51788;45.124;38.966;2024-03-07T06:24:02;12.68;;;8.50;;
65202;SDS011;51788;45.124;38.966;2024-03-07T06:26:32;11.10;;;9.48;;
65202;SDS011;51788;45.124;38.966;2024-03-07T06:29:18;12.35;;;10.43;;
65202;SDS011;51788;45.124;38.966;2024-03-07T06:31:44;10.48;;;9.40;;
65202;SDS011;51788;45.124;38.966;2024-03-07T06:34:14;10.25;;;8.70;;
65202;SDS011;51788;45.124;38.966;2024-03-07T06:36:40;14.98;;;9.65;;
65202;SDS011;51788;45.124;38.966;2024-03-07T06:39:06;13.30;;;7.35;;
65202;SDS011;51788;45.124;38.966;2024-03-07T06:41:34;8.88;;;7.38;;
65202;SDS011;51788;45.124;38.966;2024-03-07T06:44:01;9.10;;;7.57;;
65202;SDS011;51788;45.124;38.966;2024-03-07T06:46:28;17.23;;;11.25;;
65202;SDS011;51788;45.124;38.966;2024-03-07T06:48:54;9.38;;;7.30;;
65202;SDS011;51788;45.124;38.966;2024-03-07T06:51:21;12.32;;;8.27;;
65202;SDS011;51788;45.124;38.966;2024-03-07T06:53:48;11.98;;;9.25;;
65202;SDS011;51788;45.124;38.966;2024-03-07T06:56:15;15.70;;;9.77;;
65202;SDS011;51788;45.124;38.966;2024-03-07T06:58:42;8.52;;;7.45;;
65202;SDS011;51788;45.124;38.966;2024-03-07T07:01:11;17.33;;;11.55;;
65202;SDS011;51788;45.124;38.966;2024-03-07T07:03:40;9.57;;;7.88;;
65202;SDS011;51788;45.124;38.966;2024-03-07T07:06:08;17.77;;;12.68;;
65202;SDS011;51788;45.124;38.966;2024-03-07T07:08:36;9.93;;;8.88;;
65202;SDS011;51788;45.124;38.966;2024-03-07T07:11:02;16.65;;;10.65;;
65202;SDS011;51788;45.124;38.966;2024-03-07T07:13:29;12.52;;;9.00;;
65202;SDS011;51788;45.124;38.966;2024-03-07T07:15:55;11.52;;;9.57;;
65202;SDS011;51788;45.124;38.966;2024-03-07T07:18:21;22.70;;;17.33;;
65202;SDS011;51788;45.124;38.966;2024-03-07T07:20:49;20.70;;;13.98;;
65202;SDS011;51788;45.124;38.966;2024-03-07T07:23:17;19.38;;;14.35;;
65202;SDS011;51788;45.124;38.966;2024-03-07T07:25:45;11.20;;;8.32;;
65202;SDS011;51788;45.124;38.966;2024-03-07T07:28:11;20.55;;;11.35;;
65202;SDS011;51788;45.124;38.966;2024-03-07T07:30:38;13.88;;;10.98;;
65202;SDS011;51788;45.124;38.966;2024-03-07T07:33:04;20.83;;;12.02;;
65202;SDS011;51788;45.124;38.966;2024-03-07T07:35:30;15.90;;;11.02;;
65202;SDS011;51788;45.124;38.966;2024-03-07T07:37:56;16.00;;;10.43;;
65202;SDS011;51788;45.124;38.966;2024-03-07T07:40:23;13.93;;;12.35;;
65202;SDS011;51788;45.124;38.966;2024-03-07T07:42:52;15.25;;;13.40;;
65202;SDS011;51788;45.124;38.966;2024-03-07T07:45:19;20.38;;;12.80;;
65202;SDS011;51788;45.124;38.966;2024-03-07T07:47:51;18.58;;;11.93;;
65202;SDS011;51788;45.124;38.966;2024-03-07T07:50:22;14.40;;;12.60;;
65202;SDS011;51788;45.124;38.966;2024-03-07T07:52:50;21.52;;;12.68;;
65202;SDS011;51788;45.124;38.966;2024-03-07T07:55:22;21.17;;;12.65;;
65202;SDS011;51788;45.124;38.966;2024-03-07T07:57:54;15.48;;;11.63;;
65202;SDS011;51788;45.124;38.966;2024-03-07T08:00:24;16.40;;;12.25;;
65202;SDS011;51788;45.124;38.966;2024-03-07T08:02:52;19.27;;;15.98;;
65202;SDS011;51788;45.124;38.966;2024-03-07T08:05:19;16.42;;;13.55;;
65202;SDS011;51788;45.124;38.966;2024-03-07T08:07:49;22.48;;;15.77;;
65202;SDS011;51788;45.124;38.966;2024-03-07T08:10:17;21.52;;;16.17;;
65202;SDS011;51788;45.124;38.966;2024-03-07T08:13:02;20.55;;;13.75;;
65202;SDS011;51788;45.124;38.966;2024-03-07T08:15:31;18.10;;;13.13;;
65202;SDS011;51788;45.124;38.966;2024-03-07T08:17:57;16.08;;;11.27;;
65202;SDS011;51788;45.124;38.966;2024-03-07T08:20:25;20.55;;;14.40;;
65202;SDS011;51788;45.124;38.966;2024-03-07T08:22:53;24.10;;;15.88;;
65202;SDS011;51788;45.124;38.966;2024-03-07T08:25:21;19.92;;;14.63;;
65202;SDS011;51788;45.124;38.966;2024-03-07T08:27:55;13.73;;;11.27;;
65202;SDS011;51788;45.124;38.966;2024-03-07T08:30:23;14.73;;;12.18;;
65202;SDS011;51788;45.124;38.966;2024-03-07T08:32:51;13.98;;;12.45;;
65202;SDS011;51788;45.124;38.966;2024-03-07T08:35:17;22.15;;;15.85;;
65202;SDS011;51788;45.124;38.966;2024-03-07T08:37:47;20.20;;;14.20;;
65202;SDS011;51788;45.124;38.966;2024-03-07T08:40:22;17.85;;;12.55;;
65202;SDS011;51788;45.124;38.966;2024-03-07T08:42:56;16.40;;;13.50;;
65202;SDS011;51788;45.124;38.966;2024-03-07T08:45:22;16.83;;;12.50;;
65202;SDS011;51788;45.124;38.966;2024-03-07T08:47:50;30.58;;;18.73;;
65202;SDS011;51788;45.124;38.966;2024-03-07T08:50:17;23.13;;;16.15;;
65202;SDS011;51788;45.124;38.966;2024-03-07T08:52:44;20.13;;;14.57;;
65202;SDS011;51788;45.124;38.966;2024-03-07T08:55:12;25.27;;;17.25;;
65202;SDS011;51788;45.124;38.966;2024-03-07T08:57:42;19.80;;;14.32;;
65202;SDS011;51788;45.124;38.966;2024-03-07T09:00:11;55.05;;;33.22;;
65202;SDS011;51788;45.124;38.966;2024-03-07T09:02:54;20.52;;;16.33;;
65202;SDS011;51788;45.124;38.966;2024-03-07T09:05:24;21.85;;;15.85;;
65202;SDS011;51788;45.124;38.966;2024-03-07T09:07:51;23.58;;;16.52;;
65202;SDS011;51788;45.124;38.966;2024-03-07T09:10:18;25.77;;;16.52;;
65202;SDS011;51788;45.124;38.966;2024-03-07T09:12:45;25.08;;;14.20;;
65202;SDS011;51788;45.124;38.966;2024-03-07T09:15:14;28.48;;;18.98;;
65202;SDS011;51788;45.124;38.966;2024-03-07T09:17:41;28.25;;;21.13;;
65202;SDS011;51788;45.124;38.966;2024-03-07T09:20:07;18.63;;;15.40;;
65202;SDS011;51788;45.124;38.966;2024-03-07T09:22:48;21.80;;;17.45;;
65202;SDS011;51788;45.124;38.966;2024-03-07T09:25:16;25.27;;;20.25;;
65202;SDS011;51788;45.124;38.966;2024-03-07T09:27:44;21.30;;;19.10;;
65202;SDS011;51788;45.124;38.966;2024-03-07T09:30:10;25.33;;;18.30;;
65202;SDS011;51788;45.124;38.966;2024-03-07T09:32:44;28.45;;;17.13;;
65202;SDS011;51788;45.124;38.966;2024-03-07T09:35:10;21.60;;;17.40;;
65202;SDS011;51788;45.124;38.966;2024-03-07T09:37:40;17.38;;;15.07;;
65202;SDS011;51788;45.124;38.966;2024-03-07T09:40:07;23.02;;;17.30;;
65202;SDS011;51788;45.124;38.966;2024-03-07T09:42:35;19.15;;;14.23;;
65202;SDS011;51788;45.124;38.966;2024-03-07T09:45:23;23.27;;;17.42;;
65202;SDS011;51788;45.124;38.966;2024-03-07T09:47:55;20.35;;;15.32;;
65202;SDS011;51788;45.124;38.966;2024-03-07T09:50:23;22.98;;;15.48;;
65202;SDS011;51788;45.124;38.966;2024-03-07T09:52:53;25.20;;;16.52;;
65202;SDS011;51788;45.124;38.966;2024-03-07T09:55:19;18.75;;;16.75;;
65202;SDS011;51788;45.124;38.966;2024-03-07T09:57:47;23.67;;;17.48;;
65202;SDS011;51788;45.124;38.966;2024-03-07T10:00:16;23.50;;;17.23;;
65202;SDS011;51788;45.124;38.966;2024-03-07T10:02:54;15.98;;;12.23;;
65202;SDS011;51788;45.124;38.966;2024-03-07T10:05:23;16.23;;;13.68;;
65202;SDS011;51788;45.124;38.966;2024-03-07T10:07:52;13.95;;;11.88;;
65202;SDS011;51788;45.124;38.966;2024-03-07T10:10:18;19.58;;;16.70;;
65202;SDS011;51788;45.124;38.966;2024-03-07T10:12:45;23.98;;;21.38;;
65202;SDS011;51788;45.124;38.966;2024-03-07T10:15:11;19.67;;;16.05;;
65202;SDS011;51788;45.124;38.966;2024-03-07T10:17:38;25.20;;;17.92;;
65202;SDS011;51788;45.124;38.966;2024-03-07T10:20:08;17.15;;;13.77;;
65202;SDS011;51788;45.124;38.966;2024-03-07T10:22:36;21.75;;;17.42;;
65202;SDS011;51788;45.124;38.966;2024-03-07T10:25:03;23.25;;;19.65;;
65202;SDS011;51788;45.124;38.966;2024-03-07T10:27:29;20.48;;;16.83;;
65202;SDS011;51788;45.124;38.966;2024-03-07T10:29:55;21.00;;;16.60;;
65202;SDS011;51788;45.124;38.966;2024-03-07T10:32:21;23.48;;;17.23;;
65202;SDS011;51788;45.124;38.966;2024-03-07T10:34:51;19.45;;;14.18;;
65202;SDS011;51788;45.124;38.966;2024-03-07T10:37:18;20.85;;;17.27;;
65202;SDS011;51788;45.124;38.966;2024-03-07T10:39:50;15.68;;;13.30;;
65202;SDS011;51788;45.124;38.966;2024-03-07T10:42:16;24.55;;;18.73;;
65202;SDS011;51788;45.124;38.966;2024-03-07T10:44:44;26.08;;;18.92;;
65202;SDS011;51788;45.124;38.966;2024-03-07T10:47:15;15.68;;;12.93;;
65202;SDS011;51788;45.124;38.966;2024-03-07T10:50:04;20.42;;;14.20;;
65202;SDS011;51788;45.124;38.966;2024-03-07T10:52:46;20.17;;;14.82;;
65202;SDS011;51788;45.124;38.966;2024-03-07T10:55:31;17.60;;;14.95;;
65202;SDS011;51788;45.124;38.966;2024-03-07T10:58:09;23.58;;;15.25;;
65202;SDS011;51788;45.124;38.966;2024-03-07T11:00:46;26.85;;;17.42;;
65202;SDS011;51788;45.124;38.966;2024-03-07T11:03:13;21.35;;;16.85;;
65202;SDS011;51788;45.124;38.966;2024-03-07T11:05:40;19.80;;;16.77;;
65202;SDS011;51788;45.124;38.966;2024-03-07T11:08:08;21.05;;;16.88;;
65202;SDS011;51788;45.124;38.966;2024-03-07T11:10:38;20.25;;;14.75;;
65202;SDS011;51788;45.124;38.966;2024-03-07T11:13:09;26.77;;;19.00;;
65202;SDS011;51788;45.124;38.966;2024-03-07T11:15:39;20.85;;;14.68;;
65202;SDS011;51788;45.124;38.966;2024-03-07T11:18:11;14.73;;;13.20;;
65202;SDS011;51788;45.124;38.966;2024-03-07T11:20:38;22.98;;;17.30;;
65202;SDS011;51788;45.124;38.966;2024-03-07T11:26:05;26.10;;;17.45;;
65202;SDS011;51788;45.124;38.966;2024-03-07T11:28:35;35.80;;;21.85;;
65202;SDS011;51788;45.124;38.966;2024-03-07T11:31:08;33.22;;;19.88;;
65202;SDS011;51788;45.124;38.966;2024-03-07T11:36:43;19.40;;;15.90;;
65202;SDS011;51788;45.124;38.966;2024-03-07T11:42:29;26.73;;;14.43;;
65202;SDS011;51788;45.124;38.966;2024-03-07T11:45:01;22.73;;;15.38;;
65202;SDS011;51788;45.124;38.966;2024-03-07T11:47:35;29.98;;;19.05;;
65202;SDS011;51788;45.124;38.966;2024-03-07T11:50:06;19.73;;;14.23;;
65202;SDS011;51788;45.124;38.966;2024-03-07T11:52:45;21.15;;;15.38;;
65202;SDS011;51788;45.124;38.966;2024-03-07T11:55:12;26.42;;;18.90;;
65202;SDS011;51788;45.124;38.966;2024-03-07T11:57:38;24.30;;;18.88;;
65202;SDS011;51788;45.124;38.966;2024-03-07T12:00:06;22.50;;;14.93;;
65202;SDS011;51788;45.124;38.966;2024-03-07T12:02:39;24.92;;;15.75;;
65202;SDS011;51788;45.124;38.966;2024-03-07T12:05:05;20.17;;;17.98;;
65202;SDS011;51788;45.124;38.966;2024-03-07T12:07:32;20.95;;;16.95;;
65202;SDS011;51788;45.124;38.966;2024-03-07T12:10:02;21.88;;;16.75;;
65202;SDS011;51788;45.124;38.966;2024-03-07T12:12:30;20.70;;;16.25;;
65202;SDS011;51788;45.124;38.966;2024-03-07T12:14:56;21.33;;;17.08;;
65202;SDS011;51788;45.124;38.966;2024-03-07T12:17:22;20.70;;;17.08;;
65202;SDS011;51788;45.124;38.966;2024-03-07T12:19:49;24.60;;;19.13;;
65202;SDS011;51788;45.124;38.966;2024-03-07T12:22:21;21.23;;;14.85;;
65202;SDS011;51788;45.124;38.966;2024-03-07T12:25:00;19.75;;;17.58;;
65202;SDS011;51788;45.124;38.966;2024-03-07T12:27:27;19.92;;;14.18;;
65202;SDS011;51788;45.124;38.966;2024-03-07T12:29:54;19.42;;;16.55;;
65202;SDS011;51788;45.124;38.966;2024-03-07T12:32:21;18.13;;;15.38;;
65202;SDS011;51788;45.124;38.966;2024-03-07T12:34:46;30.27;;;18.92;;
65202;SDS011;51788;45.124;38.966;2024-03-07T12:37:13;17.58;;;15.77;;
65202;SDS011;51788;45.124;38.966;2024-03-07T12:39:42;20.83;;;16.80;;
65202;SDS011;51788;45.124;38.966;2024-03-07T12:42:13;27.35;;;22.25;;
65202;SDS011;51788;45.124;38.966;2024-03-07T12:44:44;22.75;;;19.95;;
65202;SDS011;51788;45.124;38.966;2024-03-07T12:47:14;14.90;;;13.25;;
65202;SDS011;51788;45.124;38.966;2024-03-07T12:49:41;18.08;;;16.20;;
65202;SDS011;51788;45.124;38.966;2024-03-07T12:52:10;25.05;;;18.25;;
65202;SDS011;51788;45.124;38.966;2024-03-07T12:54:40;20.60;;;16.55;;
65202;SDS011;51788;45.124;38.966;2024-03-07T12:57:08;19.73;;;15.73;;
65202;SDS011;51788;45.124;38.966;2024-03-07T12:59:36;22.25;;;16.45;;
65202;SDS011;51788;45.124;38.966;2024-03-07T13:02:08;20.30;;;15.45;;
65202;SDS011;51788;45.124;38.966;2024-03-07T13:04:35;22.85;;;16.27;;
65202;SDS011;51788;45.124;38.966;2024-03-07T13:07:05;24.08;;;17.60;;
65202;SDS011;51788;45.124;38.966;2024-03-07T13:09:32;34.25;;;18.73;;
65202;SDS011;51788;45.124;38.966;2024-03-07T13:11:58;25.23;;;17.23;;
65202;SDS011;51788;45.124;38.966;2024-03-07T13:14:34;27.73;;;22.88;;
65202;SDS011;51788;45.124;38.966;2024-03-07T13:19:28;27.33;;;15.60;;
65202;SDS011;51788;45.124;38.966;2024-03-07T13:21:55;29.77;;;21.50;;
65202;SDS011;51788;45.124;38.966;2024-03-07T13:24:22;28.25;;;20.98;;
65202;SDS011;51788;45.124;38.966;2024-03-07T13:26:48;33.17;;;24.17;;
65202;SDS011;51788;45.124;38.966;2024-03-07T13:29:15;34.28;;;20.48;;
65202;SDS011;51788;45.124;38.966;2024-03-07T13:31:42;27.63;;;21.33;;
65202;SDS011;51788;45.124;38.966;2024-03-07T13:34:10;34.83;;;22.58;;
65202;SDS011;51788;45.124;38.966;2024-03-07T13:36:41;26.30;;;22.65;;
65202;SDS011;51788;45.124;38.966;2024-03-07T13:39:12;30.23;;;24.30;;
65202;SDS011;51788;45.124;38.966;2024-03-07T13:41:39;26.70;;;19.05;;
65202;SDS011;51788;45.124;38.966;2024-03-07T13:44:10;27.30;;;20.65;;
65202;SDS011;51788;45.124;38.966;2024-03-07T13:46:36;28.70;;;21.55;;
65202;SDS011;51788;45.124;38.966;2024-03-07T13:49:03;28.75;;;21.42;;
65202;SDS011;51788;45.124;38.966;2024-03-07T13:51:38;34.67;;;24.08;;
65202;SDS011;51788;45.124;38.966;2024-03-07T13:54:19;22.27;;;14.93;;
65202;SDS011;51788;45.124;38.966;2024-03-07T13:59:33;29.77;;;20.77;;
65202;SDS011;51788;45.124;38.966;2024-03-07T14:08:52;31.23;;;17.55;;
65202;SDS011;51788;45.124;38.966;2024-03-07T14:23:30;18.30;;;13.38;;
65202;SDS011;51788;45.124;38.966;2024-03-07T14:31:31;45.08;;;22.55;;
65202;SDS011;51788;45.124;38.966;2024-03-07T14:36:37;33.22;;;24.35;;
65202;SDS011;51788;45.124;38.966;2024-03-07T14:39:04;31.42;;;20.75;;
65202;SDS011;51788;45.124;38.966;2024-03-07T14:41:42;30.90;;;20.77;;
65202;SDS011;51788;45.124;38.966;2024-03-07T14:44:09;27.90;;;19.20;;
65202;SDS011;51788;45.124;38.966;2024-03-07T14:46:36;30.50;;;22.45;;
65202;SDS011;51788;45.124;38.966;2024-03-07T14:49:02;32.78;;;25.40;;
65202;SDS011;51788;45.124;38.966;2024-03-07T14:51:29;28.60;;;21.88;;
65202;SDS011;51788;45.124;38.966;2024-03-07T14:53:55;31.13;;;24.10;;
65202;SDS011;51788;45.124;38.966;2024-03-07T14:56:22;27.65;;;24.48;;
65202;SDS011;51788;45.124;38.966;2024-03-07T14:58:48;32.83;;;24.33;;
65202;SDS011;51788;45.124;38.966;2024-03-07T15:01:14;36.42;;;27.45;;
65202;SDS011;51788;45.124;38.966;2024-03-07T15:03:40;33.10;;;22.55;;
65202;SDS011;51788;45.124;38.966;2024-03-07T15:06:10;32.22;;;23.33;;